sensor_id;sensor_type;location;lat;lon;timestamp;P1;durP1;ratioP1;P2;durP2;ratioP2
22614;SDS011;11474;50.790;0.298;2022-11-20T00:00:09;18.23;;;10.05;;
22614;SDS011;11474;50.790;0.298;2022-11-20T00:02:35;24.88;;;11.07;;
22614;SDS011;11474;50.790;0.298;2022-11-20T00:05:01;23.17;;;10.30;;
22614;SDS011;11474;50.790;0.298;2022-11-20T00:07:27;20.85;;;10.00;;
22614;SDS011;11474;50.790;0.298;2022-11-20T00:09:53;26.83;;;11.90;;
22614;SDS011;11474;50.790;0.298;2022-11-20T00:12:19;17.20;;;9.07;;
22614;SDS011;11474;50.790;0.298;2022-11-20T00:14:45;21.92;;;10.18;;
22614;SDS011;11474;50.790;0.298;2022-11-20T00:17:11;18.35;;;8.90;;
22614;SDS011;11474;50.790;0.298;2022-11-20T00:19:37;20.35;;;9.43;;
22614;SDS011;11474;50.790;0.298;2022-11-20T00:22:03;13.88;;;7.55;;
22614;SDS011;11474;50.790;0.298;2022-11-20T00:24:29;15.07;;;8.13;;
22614;SDS011;11474;50.790;0.298;2022-11-20T00:26:55;18.38;;;8.80;;
22614;SDS011;11474;50.790;0.298;2022-11-20T00:29:21;17.60;;;9.32;;
22614;SDS011;11474;50.790;0.298;2022-11-20T00:31:47;21.50;;;10.07;;
22614;SDS011;11474;50.790;0.298;2022-11-20T00:34:13;22.73;;;11.05;;
22614;SDS011;11474;50.790;0.298;2022-11-20T00:36:39;21.73;;;11.05;;
22614;SDS011;11474;50.790;0.298;2022-11-20T00:39:05;19.77;;;10.65;;
22614;SDS011;11474;50.790;0.298;2022-11-20T00:41:31;20.95;;;10.13;;
22614;SDS011;11474;50.790;0.298;2022-11-20T00:43:57;18.63;;;10.23;;
22614;SDS011;11474;50.790;0.298;2022-11-20T00:46:25;23.10;;;10.52;;
22614;SDS011;11474;50.790;0.298;2022-11-20T00:48:51;23.63;;;11.30;;
22614;SDS011;11474;50.790;0.298;2022-11-20T00:51:18;21.08;;;10.90;;
22614;SDS011;11474;50.790;0.298;2022-11-20T00:53:45;24.15;;;11.60;;
22614;SDS011;11474;50.790;0.298;2022-11-20T00:56:12;27.70;;;12.35;;
22614;SDS011;11474;50.790;0.298;2022-11-20T00:58:39;29.40;;;12.45;;
22614;SDS011;11474;50.790;0.298;2022-11-20T01:01:09;22.43;;;11.10;;
22614;SDS011;11474;50.790;0.298;2022-11-20T01:03:37;21.30;;;10.73;;
22614;SDS011;11474;50.790;0.298;2022-11-20T01:06:04;20.27;;;10.52;;
22614;SDS011;11474;50.790;0.298;2022-11-20T01:08:31;20.95;;;10.30;;
22614;SDS011;11474;50.790;0.298;2022-11-20T01:11:05;21.83;;;10.25;;
22614;SDS011;11474;50.790;0.298;2022-11-20T01:13:31;21.37;;;10.60;;
22614;SDS011;11474;50.790;0.298;2022-11-20T01:18:32;23.85;;;11.20;;
22614;SDS011;11474;50.790;0.298;2022-11-20T01:21:02;23.73;;;11.05;;
22614;SDS011;11474;50.790;0.298;2022-11-20T01:23:32;22.27;;;11.43;;
22614;SDS011;11474;50.790;0.298;2022-11-20T01:26:05;22.83;;;11.23;;
22614;SDS011;11474;50.790;0.298;2022-11-20T01:28:31;21.73;;;11.90;;
22614;SDS011;11474;50.790;0.298;2022-11-20T01:30:58;23.13;;;11.63;;
22614;SDS011;11474;50.790;0.298;2022-11-20T01:33:24;21.65;;;11.50;;
22614;SDS011;11474;50.790;0.298;2022-11-20T01:35:50;23.70;;;11.90;;
22614;SDS011;11474;50.790;0.298;2022-11-20T01:38:17;22.40;;;11.93;;
22614;SDS011;11474;50.790;0.298;2022-11-20T01:40:45;22.50;;;11.95;;
22614;SDS011;11474;50.790;0.298;2022-11-20T01:43:16;20.55;;;10.75;;
22614;SDS011;11474;50.790;0.298;2022-11-20T01:45:55;25.10;;;11.40;;
22614;SDS011;11474;50.790;0.298;2022-11-20T01:48:22;25.13;;;12.20;;
22614;SDS011;11474;50.790;0.298;2022-11-20T01:50:49;22.42;;;12.02;;
22614;SDS011;11474;50.790;0.298;2022-11-20T01:53:17;23.20;;;11.55;;
22614;SDS011;11474;50.790;0.298;2022-11-20T01:55:47;24.48;;;12.70;;
22614;SDS011;11474;50.790;0.298;2022-11-20T01:58:14;28.50;;;13.20;;
22614;SDS011;11474;50.790;0.298;2022-11-20T02:00:40;23.48;;;11.00;;
22614;SDS011;11474;50.790;0.298;2022-11-20T02:03:11;25.63;;;12.43;;
22614;SDS011;11474;50.790;0.298;2022-11-20T02:05:46;26.38;;;12.80;;
22614;SDS011;11474;50.790;0.298;2022-11-20T02:08:14;24.55;;;13.43;;
22614;SDS011;11474;50.790;0.298;2022-11-20T02:10:41;25.88;;;14.10;;
22614;SDS011;11474;50.790;0.298;2022-11-20T02:13:07;29.17;;;14.48;;
22614;SDS011;11474;50.790;0.298;2022-11-20T02:15:52;23.10;;;14.80;;
22614;SDS011;11474;50.790;0.298;2022-11-20T02:18:19;28.88;;;14.20;;
22614;SDS011;11474;50.790;0.298;2022-11-20T02:20:46;27.38;;;14.25;;
22614;SDS011;11474;50.790;0.298;2022-11-20T02:23:31;26.10;;;13.55;;
22614;SDS011;11474;50.790;0.298;2022-11-20T02:25:58;30.25;;;14.00;;
22614;SDS011;11474;50.790;0.298;2022-11-20T02:28:25;23.95;;;12.93;;
22614;SDS011;11474;50.790;0.298;2022-11-20T02:30:51;31.20;;;14.35;;
22614;SDS011;11474;50.790;0.298;2022-11-20T02:33:18;28.45;;;14.20;;
22614;SDS011;11474;50.790;0.298;2022-11-20T02:35:47;29.63;;;14.23;;
22614;SDS011;11474;50.790;0.298;2022-11-20T02:38:13;27.52;;;14.65;;
22614;SDS011;11474;50.790;0.298;2022-11-20T02:40:40;28.67;;;15.63;;
22614;SDS011;11474;50.790;0.298;2022-11-20T02:43:06;30.10;;;15.18;;
22614;SDS011;11474;50.790;0.298;2022-11-20T02:45:33;26.63;;;13.77;;
22614;SDS011;11474;50.790;0.298;2022-11-20T02:47:59;28.10;;;13.73;;
22614;SDS011;11474;50.790;0.298;2022-11-20T02:50:25;30.08;;;13.27;;
22614;SDS011;11474;50.790;0.298;2022-11-20T02:52:51;27.10;;;12.43;;
22614;SDS011;11474;50.790;0.298;2022-11-20T02:55:17;27.80;;;12.20;;
22614;SDS011;11474;50.790;0.298;2022-11-20T02:57:43;26.77;;;11.48;;
22614;SDS011;11474;50.790;0.298;2022-11-20T03:00:09;23.75;;;11.77;;
22614;SDS011;11474;50.790;0.298;2022-11-20T03:02:35;20.23;;;9.10;;
22614;SDS011;11474;50.790;0.298;2022-11-20T03:05:02;19.30;;;9.07;;
22614;SDS011;11474;50.790;0.298;2022-11-20T03:07:28;17.30;;;8.45;;
22614;SDS011;11474;50.790;0.298;2022-11-20T03:09:54;18.33;;;7.30;;
22614;SDS011;11474;50.790;0.298;2022-11-20T03:12:20;17.08;;;8.30;;
22614;SDS011;11474;50.790;0.298;2022-11-20T03:14:46;21.45;;;9.88;;
22614;SDS011;11474;50.790;0.298;2022-11-20T03:17:12;17.90;;;7.97;;
22614;SDS011;11474;50.790;0.298;2022-11-20T03:19:38;16.92;;;7.22;;
22614;SDS011;11474;50.790;0.298;2022-11-20T03:22:04;14.90;;;7.17;;
22614;SDS011;11474;50.790;0.298;2022-11-20T03:24:30;15.73;;;7.93;;
22614;SDS011;11474;50.790;0.298;2022-11-20T03:26:56;14.50;;;7.03;;
22614;SDS011;11474;50.790;0.298;2022-11-20T03:29:22;12.40;;;5.70;;
22614;SDS011;11474;50.790;0.298;2022-11-20T03:31:49;15.80;;;6.65;;
22614;SDS011;11474;50.790;0.298;2022-11-20T03:34:15;13.32;;;5.55;;
22614;SDS011;11474;50.790;0.298;2022-11-20T03:36:41;9.98;;;4.60;;
22614;SDS011;11474;50.790;0.298;2022-11-20T03:39:08;12.55;;;5.95;;
22614;SDS011;11474;50.790;0.298;2022-11-20T03:41:38;8.82;;;4.18;;
22614;SDS011;11474;50.790;0.298;2022-11-20T03:44:05;12.05;;;6.45;;
22614;SDS011;11474;50.790;0.298;2022-11-20T03:46:31;11.40;;;4.73;;
22614;SDS011;11474;50.790;0.298;2022-11-20T03:48:58;20.92;;;9.38;;
22614;SDS011;11474;50.790;0.298;2022-11-20T03:51:24;19.30;;;8.15;;
22614;SDS011;11474;50.790;0.298;2022-11-20T03:53:51;16.85;;;4.40;;
22614;SDS011;11474;50.790;0.298;2022-11-20T03:56:18;6.20;;;2.00;;
22614;SDS011;11474;50.790;0.298;2022-11-20T03:58:44;9.30;;;2.20;;
22614;SDS011;11474;50.790;0.298;2022-11-20T04:03:37;10.63;;;2.45;;
22614;SDS011;11474;50.790;0.298;2022-11-20T04:06:10;15.32;;;5.38;;
22614;SDS011;11474;50.790;0.298;2022-11-20T04:08:36;14.23;;;5.82;;
22614;SDS011;11474;50.790;0.298;2022-11-20T04:13:38;13.18;;;5.50;;
22614;SDS011;11474;50.790;0.298;2022-11-20T04:16:05;12.93;;;5.05;;
22614;SDS011;11474;50.790;0.298;2022-11-20T04:18:31;12.05;;;5.32;;
22614;SDS011;11474;50.790;0.298;2022-11-20T04:20:57;12.07;;;5.13;;
22614;SDS011;11474;50.790;0.298;2022-11-20T04:23:23;16.15;;;5.80;;
22614;SDS011;11474;50.790;0.298;2022-11-20T04:25:49;16.83;;;5.60;;
22614;SDS011;11474;50.790;0.298;2022-11-20T04:28:16;12.07;;;5.40;;
22614;SDS011;11474;50.790;0.298;2022-11-20T04:30:42;13.50;;;5.10;;
22614;SDS011;11474;50.790;0.298;2022-11-20T04:33:08;13.88;;;5.40;;
22614;SDS011;11474;50.790;0.298;2022-11-20T04:35:35;12.23;;;4.28;;
22614;SDS011;11474;50.790;0.298;2022-11-20T04:38:01;13.40;;;4.28;;
22614;SDS011;11474;50.790;0.298;2022-11-20T04:40:27;12.77;;;4.10;;
22614;SDS011;11474;50.790;0.298;2022-11-20T04:42:54;11.10;;;4.55;;
22614;SDS011;11474;50.790;0.298;2022-11-20T04:45:20;12.63;;;4.30;;
22614;SDS011;11474;50.790;0.298;2022-11-20T04:47:46;13.52;;;4.10;;
22614;SDS011;11474;50.790;0.298;2022-11-20T04:50:12;10.43;;;2.58;;
22614;SDS011;11474;50.790;0.298;2022-11-20T04:52:38;8.98;;;1.73;;
22614;SDS011;11474;50.790;0.298;2022-11-20T04:55:04;10.55;;;2.13;;
22614;SDS011;11474;50.790;0.298;2022-11-20T04:57:30;10.98;;;1.90;;
22614;SDS011;11474;50.790;0.298;2022-11-20T04:59:56;8.52;;;1.77;;
22614;SDS011;11474;50.790;0.298;2022-11-20T05:02:22;10.07;;;1.80;;
22614;SDS011;11474;50.790;0.298;2022-11-20T05:04:48;8.30;;;1.77;;
22614;SDS011;11474;50.790;0.298;2022-11-20T05:07:14;7.63;;;1.70;;
22614;SDS011;11474;50.790;0.298;2022-11-20T05:09:40;8.65;;;1.95;;
22614;SDS011;11474;50.790;0.298;2022-11-20T05:12:07;13.18;;;2.30;;
22614;SDS011;11474;50.790;0.298;2022-11-20T05:14:34;11.45;;;2.13;;
22614;SDS011;11474;50.790;0.298;2022-11-20T05:17:00;6.57;;;1.92;;
22614;SDS011;11474;50.790;0.298;2022-11-20T05:19:26;7.45;;;2.10;;
22614;SDS011;11474;50.790;0.298;2022-11-20T05:21:52;8.50;;;1.83;;
22614;SDS011;11474;50.790;0.298;2022-11-20T05:24:18;7.32;;;2.00;;
22614;SDS011;11474;50.790;0.298;2022-11-20T05:26:44;10.02;;;2.00;;
22614;SDS011;11474;50.790;0.298;2022-11-20T05:29:11;11.15;;;2.30;;
22614;SDS011;11474;50.790;0.298;2022-11-20T05:31:38;9.88;;;2.10;;
22614;SDS011;11474;50.790;0.298;2022-11-20T05:34:04;9.00;;;2.47;;
22614;SDS011;11474;50.790;0.298;2022-11-20T05:36:30;12.68;;;2.00;;
22614;SDS011;11474;50.790;0.298;2022-11-20T05:38:56;10.63;;;2.60;;
22614;SDS011;11474;50.790;0.298;2022-11-20T05:41:22;9.48;;;2.10;;
22614;SDS011;11474;50.790;0.298;2022-11-20T05:43:48;10.25;;;2.45;;
22614;SDS011;11474;50.790;0.298;2022-11-20T05:46:15;9.38;;;1.90;;
22614;SDS011;11474;50.790;0.298;2022-11-20T05:48:42;10.93;;;2.03;;
22614;SDS011;11474;50.790;0.298;2022-11-20T05:51:10;11.32;;;2.40;;
22614;SDS011;11474;50.790;0.298;2022-11-20T05:53:36;13.13;;;2.00;;
22614;SDS011;11474;50.790;0.298;2022-11-20T05:56:09;9.63;;;2.00;;
22614;SDS011;11474;50.790;0.298;2022-11-20T05:58:36;7.88;;;1.70;;
22614;SDS011;11474;50.790;0.298;2022-11-20T06:01:09;10.43;;;2.58;;
22614;SDS011;11474;50.790;0.298;2022-11-20T06:03:36;8.68;;;2.28;;
22614;SDS011;11474;50.790;0.298;2022-11-20T06:06:02;10.45;;;1.60;;
22614;SDS011;11474;50.790;0.298;2022-11-20T06:08:29;8.32;;;2.25;;
22614;SDS011;11474;50.790;0.298;2022-11-20T06:10:55;11.32;;;2.10;;
22614;SDS011;11474;50.790;0.298;2022-11-20T06:13:21;5.97;;;1.53;;
22614;SDS011;11474;50.790;0.298;2022-11-20T06:15:48;8.50;;;1.65;;
22614;SDS011;11474;50.790;0.298;2022-11-20T06:18:14;8.77;;;1.70;;
22614;SDS011;11474;50.790;0.298;2022-11-20T06:20:40;10.02;;;1.98;;
22614;SDS011;11474;50.790;0.298;2022-11-20T06:23:06;5.50;;;1.40;;
22614;SDS011;11474;50.790;0.298;2022-11-20T06:25:32;8.43;;;1.77;;
22614;SDS011;11474;50.790;0.298;2022-11-20T06:27:58;8.70;;;1.90;;
22614;SDS011;11474;50.790;0.298;2022-11-20T06:30:24;10.77;;;1.90;;
22614;SDS011;11474;50.790;0.298;2022-11-20T06:32:50;14.50;;;2.60;;
22614;SDS011;11474;50.790;0.298;2022-11-20T06:35:16;7.78;;;1.60;;
22614;SDS011;11474;50.790;0.298;2022-11-20T06:37:42;13.40;;;2.10;;
22614;SDS011;11474;50.790;0.298;2022-11-20T06:40:09;7.05;;;1.83;;
22614;SDS011;11474;50.790;0.298;2022-11-20T06:42:35;5.43;;;1.60;;
22614;SDS011;11474;50.790;0.298;2022-11-20T06:45:01;6.47;;;1.80;;
22614;SDS011;11474;50.790;0.298;2022-11-20T06:47:27;7.07;;;1.60;;
22614;SDS011;11474;50.790;0.298;2022-11-20T06:49:53;8.00;;;1.70;;
22614;SDS011;11474;50.790;0.298;2022-11-20T06:52:20;6.13;;;1.60;;
22614;SDS011;11474;50.790;0.298;2022-11-20T06:54:46;6.20;;;1.58;;
22614;SDS011;11474;50.790;0.298;2022-11-20T06:57:12;5.38;;;1.10;;
22614;SDS011;11474;50.790;0.298;2022-11-20T06:59:38;3.03;;;0.82;;
22614;SDS011;11474;50.790;0.298;2022-11-20T07:02:04;5.22;;;1.00;;
22614;SDS011;11474;50.790;0.298;2022-11-20T07:04:30;3.92;;;1.15;;
22614;SDS011;11474;50.790;0.298;2022-11-20T07:06:56;4.63;;;1.25;;
22614;SDS011;11474;50.790;0.298;2022-11-20T07:09:22;5.93;;;1.30;;
22614;SDS011;11474;50.790;0.298;2022-11-20T07:11:48;7.47;;;1.58;;
22614;SDS011;11474;50.790;0.298;2022-11-20T07:14:14;5.43;;;1.23;;
22614;SDS011;11474;50.790;0.298;2022-11-20T07:16:40;6.75;;;1.58;;
22614;SDS011;11474;50.790;0.298;2022-11-20T07:19:06;5.90;;;1.50;;
22614;SDS011;11474;50.790;0.298;2022-11-20T07:21:32;8.57;;;1.50;;
22614;SDS011;11474;50.790;0.298;2022-11-20T07:23:58;7.20;;;1.67;;
22614;SDS011;11474;50.790;0.298;2022-11-20T07:26:24;6.15;;;1.73;;
22614;SDS011;11474;50.790;0.298;2022-11-20T07:28:50;5.60;;;1.47;;
22614;SDS011;11474;50.790;0.298;2022-11-20T07:31:16;8.93;;;1.90;;
22614;SDS011;11474;50.790;0.298;2022-11-20T07:33:42;10.43;;;1.93;;
22614;SDS011;11474;50.790;0.298;2022-11-20T07:36:08;8.60;;;1.70;;
22614;SDS011;11474;50.790;0.298;2022-11-20T07:38:34;10.03;;;2.30;;
22614;SDS011;11474;50.790;0.298;2022-11-20T07:41:00;8.32;;;2.17;;
22614;SDS011;11474;50.790;0.298;2022-11-20T07:43:26;14.20;;;2.50;;
22614;SDS011;11474;50.790;0.298;2022-11-20T07:45:56;10.10;;;2.65;;
22614;SDS011;11474;50.790;0.298;2022-11-20T07:48:22;13.88;;;2.78;;
22614;SDS011;11474;50.790;0.298;2022-11-20T07:50:48;13.32;;;3.00;;
22614;SDS011;11474;50.790;0.298;2022-11-20T07:53:14;20.77;;;3.70;;
22614;SDS011;11474;50.790;0.298;2022-11-20T07:55:45;15.50;;;3.60;;
22614;SDS011;11474;50.790;0.298;2022-11-20T07:58:11;18.00;;;3.38;;
22614;SDS011;11474;50.790;0.298;2022-11-20T08:00:38;15.77;;;2.83;;
22614;SDS011;11474;50.790;0.298;2022-11-20T08:03:05;12.27;;;2.70;;
22614;SDS011;11474;50.790;0.298;2022-11-20T08:05:31;16.52;;;2.15;;
22614;SDS011;11474;50.790;0.298;2022-11-20T08:07:57;12.10;;;1.80;;
22614;SDS011;11474;50.790;0.298;2022-11-20T08:10:23;10.50;;;1.70;;
22614;SDS011;11474;50.790;0.298;2022-11-20T08:12:50;11.45;;;2.30;;
22614;SDS011;11474;50.790;0.298;2022-11-20T08:15:35;13.00;;;2.17;;
22614;SDS011;11474;50.790;0.298;2022-11-20T08:18:05;11.15;;;2.10;;
22614;SDS011;11474;50.790;0.298;2022-11-20T08:20:31;18.02;;;2.40;;
22614;SDS011;11474;50.790;0.298;2022-11-20T08:23:01;20.52;;;2.80;;
22614;SDS011;11474;50.790;0.298;2022-11-20T08:25:28;12.88;;;2.33;;
22614;SDS011;11474;50.790;0.298;2022-11-20T08:27:56;13.43;;;2.83;;
22614;SDS011;11474;50.790;0.298;2022-11-20T08:30:23;18.35;;;2.53;;
22614;SDS011;11474;50.790;0.298;2022-11-20T08:32:49;15.15;;;2.83;;
22614;SDS011;11474;50.790;0.298;2022-11-20T08:35:15;17.35;;;2.80;;
22614;SDS011;11474;50.790;0.298;2022-11-20T08:37:41;10.20;;;2.00;;
22614;SDS011;11474;50.790;0.298;2022-11-20T08:40:09;12.43;;;2.10;;
22614;SDS011;11474;50.790;0.298;2022-11-20T08:42:35;12.77;;;2.30;;
22614;SDS011;11474;50.790;0.298;2022-11-20T08:45:01;15.85;;;2.53;;
22614;SDS011;11474;50.790;0.298;2022-11-20T08:47:27;10.65;;;2.03;;
22614;SDS011;11474;50.790;0.298;2022-11-20T08:49:53;11.40;;;2.83;;
22614;SDS011;11474;50.790;0.298;2022-11-20T08:52:19;9.85;;;2.05;;
22614;SDS011;11474;50.790;0.298;2022-11-20T08:54:45;7.93;;;1.95;;
22614;SDS011;11474;50.790;0.298;2022-11-20T08:57:11;3.55;;;1.50;;
22614;SDS011;11474;50.790;0.298;2022-11-20T08:59:37;3.25;;;0.90;;
22614;SDS011;11474;50.790;0.298;2022-11-20T09:02:04;2.55;;;0.90;;
22614;SDS011;11474;50.790;0.298;2022-11-20T09:04:30;1.33;;;0.65;;
22614;SDS011;11474;50.790;0.298;2022-11-20T09:06:56;1.90;;;0.73;;
22614;SDS011;11474;50.790;0.298;2022-11-20T09:09:22;1.60;;;0.70;;
22614;SDS011;11474;50.790;0.298;2022-11-20T09:11:48;0.68;;;0.50;;
22614;SDS011;11474;50.790;0.298;2022-11-20T09:14:15;0.70;;;0.70;;
22614;SDS011;11474;50.790;0.298;2022-11-20T09:16:41;1.92;;;0.75;;
22614;SDS011;11474;50.790;0.298;2022-11-20T09:19:07;2.10;;;0.80;;
22614;SDS011;11474;50.790;0.298;2022-11-20T09:21:33;1.65;;;0.90;;
22614;SDS011;11474;50.790;0.298;2022-11-20T09:23:59;2.97;;;1.00;;
22614;SDS011;11474;50.790;0.298;2022-11-20T09:26:25;3.00;;;1.10;;
22614;SDS011;11474;50.790;0.298;2022-11-20T09:28:51;2.15;;;1.10;;
22614;SDS011;11474;50.790;0.298;2022-11-20T09:31:23;3.15;;;1.20;;
22614;SDS011;11474;50.790;0.298;2022-11-20T09:33:51;6.15;;;1.27;;
22614;SDS011;11474;50.790;0.298;2022-11-20T09:36:17;3.50;;;1.20;;
22614;SDS011;11474;50.790;0.298;2022-11-20T09:38:44;6.15;;;1.48;;
22614;SDS011;11474;50.790;0.298;2022-11-20T09:41:18;8.73;;;1.83;;
22614;SDS011;11474;50.790;0.298;2022-11-20T09:46:35;7.22;;;1.63;;
22614;SDS011;11474;50.790;0.298;2022-11-20T09:49:18;11.27;;;1.98;;
22614;SDS011;11474;50.790;0.298;2022-11-20T09:54:45;11.43;;;2.78;;
22614;SDS011;11474;50.790;0.298;2022-11-20T09:57:12;8.20;;;2.50;;
22614;SDS011;11474;50.790;0.298;2022-11-20T09:59:40;8.60;;;2.65;;
22614;SDS011;11474;50.790;0.298;2022-11-20T10:02:12;10.50;;;2.17;;
22614;SDS011;11474;50.790;0.298;2022-11-20T10:04:43;10.48;;;2.40;;
22614;SDS011;11474;50.790;0.298;2022-11-20T10:07:15;9.77;;;2.08;;
22614;SDS011;11474;50.790;0.298;2022-11-20T10:09:49;11.20;;;2.23;;
22614;SDS011;11474;50.790;0.298;2022-11-20T10:12:20;11.05;;;2.53;;
22614;SDS011;11474;50.790;0.298;2022-11-20T10:20:07;10.13;;;2.13;;
22614;SDS011;11474;50.790;0.298;2022-11-20T10:30:13;14.52;;;2.60;;
22614;SDS011;11474;50.790;0.298;2022-11-20T10:32:43;17.17;;;2.67;;
22614;SDS011;11474;50.790;0.298;2022-11-20T10:37:44;13.10;;;2.72;;
22614;SDS011;11474;50.790;0.298;2022-11-20T10:40:21;13.82;;;2.58;;
22614;SDS011;11474;50.790;0.298;2022-11-20T10:42:50;13.10;;;2.30;;
22614;SDS011;11474;50.790;0.298;2022-11-20T10:45:21;16.08;;;2.75;;
22614;SDS011;11474;50.790;0.298;2022-11-20T10:48:12;10.82;;;2.33;;
22614;SDS011;11474;50.790;0.298;2022-11-20T10:50:40;11.77;;;2.45;;
22614;SDS011;11474;50.790;0.298;2022-11-20T10:55:54;13.77;;;2.97;;
22614;SDS011;11474;50.790;0.298;2022-11-20T11:00:50;14.50;;;2.78;;
22614;SDS011;11474;50.790;0.298;2022-11-20T11:03:26;15.48;;;2.60;;
22614;SDS011;11474;50.790;0.298;2022-11-20T11:08:23;17.52;;;2.75;;
22614;SDS011;11474;50.790;0.298;2022-11-20T11:10:56;19.07;;;3.13;;
22614;SDS011;11474;50.790;0.298;2022-11-20T11:13:24;13.23;;;2.90;;
22614;SDS011;11474;50.790;0.298;2022-11-20T11:15:51;13.30;;;2.78;;
22614;SDS011;11474;50.790;0.298;2022-11-20T11:18:23;20.70;;;3.20;;
22614;SDS011;11474;50.790;0.298;2022-11-20T11:20:50;13.32;;;3.28;;
22614;SDS011;11474;50.790;0.298;2022-11-20T11:23:31;20.02;;;3.30;;
22614;SDS011;11474;50.790;0.298;2022-11-20T11:25:59;18.70;;;3.20;;
22614;SDS011;11474;50.790;0.298;2022-11-20T11:28:25;18.48;;;3.22;;
22614;SDS011;11474;50.790;0.298;2022-11-20T11:30:52;17.60;;;3.05;;
22614;SDS011;11474;50.790;0.298;2022-11-20T11:33:29;19.83;;;3.30;;
22614;SDS011;11474;50.790;0.298;2022-11-20T11:35:56;19.13;;;3.75;;
22614;SDS011;11474;50.790;0.298;2022-11-20T11:38:36;19.67;;;3.72;;
22614;SDS011;11474;50.790;0.298;2022-11-20T11:41:04;22.63;;;3.25;;
22614;SDS011;11474;50.790;0.298;2022-11-20T11:43:34;16.55;;;3.58;;
22614;SDS011;11474;50.790;0.298;2022-11-20T11:49:27;18.20;;;3.40;;
22614;SDS011;11474;50.790;0.298;2022-11-20T11:51:36;19.02;;;3.60;;
22614;SDS011;11474;50.790;0.298;2022-11-20T11:54:08;18.05;;;3.75;;
22614;SDS011;11474;50.790;0.298;2022-11-20T11:56:40;22.13;;;3.97;;
22614;SDS011;11474;50.790;0.298;2022-11-20T11:59:06;20.92;;;4.45;;
22614;SDS011;11474;50.790;0.298;2022-11-20T12:06:30;19.45;;;3.55;;
22614;SDS011;11474;50.790;0.298;2022-11-20T12:08:59;25.02;;;3.63;;
22614;SDS011;11474;50.790;0.298;2022-11-20T12:11:34;24.45;;;3.63;;
22614;SDS011;11474;50.790;0.298;2022-11-20T12:16:50;18.08;;;3.70;;
22614;SDS011;11474;50.790;0.298;2022-11-20T12:19:18;17.58;;;3.33;;
22614;SDS011;11474;50.790;0.298;2022-11-20T12:32:05;23.20;;;4.30;;
22614;SDS011;11474;50.790;0.298;2022-11-20T12:39:43;24.20;;;4.65;;
22614;SDS011;11474;50.790;0.298;2022-11-20T12:53:04;22.63;;;4.63;;
22614;SDS011;11474;50.790;0.298;2022-11-20T12:55:50;21.77;;;4.03;;
22614;SDS011;11474;50.790;0.298;2022-11-20T13:01:20;23.40;;;4.28;;
22614;SDS011;11474;50.790;0.298;2022-11-20T13:03:47;23.23;;;4.38;;
22614;SDS011;11474;50.790;0.298;2022-11-20T13:06:16;19.73;;;3.75;;
22614;SDS011;11474;50.790;0.298;2022-11-20T13:08:48;21.92;;;3.78;;
22614;SDS011;11474;50.790;0.298;2022-11-20T13:13:56;19.85;;;3.47;;
22614;SDS011;11474;50.790;0.298;2022-11-20T13:19:11;16.92;;;3.63;;
22614;SDS011;11474;50.790;0.298;2022-11-20T13:21:39;21.48;;;3.97;;
22614;SDS011;11474;50.790;0.298;2022-11-20T13:24:06;21.85;;;3.60;;
22614;SDS011;11474;50.790;0.298;2022-11-20T13:26:32;20.00;;;3.90;;
22614;SDS011;11474;50.790;0.298;2022-11-20T13:28:59;18.85;;;4.20;;
22614;SDS011;11474;50.790;0.298;2022-11-20T13:31:32;26.63;;;4.72;;
22614;SDS011;11474;50.790;0.298;2022-11-20T13:33:59;24.52;;;4.35;;
22614;SDS011;11474;50.790;0.298;2022-11-20T13:36:26;23.27;;;4.28;;
22614;SDS011;11474;50.790;0.298;2022-11-20T13:38:54;24.27;;;4.35;;
22614;SDS011;11474;50.790;0.298;2022-11-20T13:41:27;26.17;;;4.17;;
22614;SDS011;11474;50.790;0.298;2022-11-20T13:44:04;19.98;;;3.75;;
22614;SDS011;11474;50.790;0.298;2022-11-20T13:46:37;24.23;;;4.00;;
22614;SDS011;11474;50.790;0.298;2022-11-20T13:49:14;20.67;;;4.23;;
22614;SDS011;11474;50.790;0.298;2022-11-20T13:51:46;21.07;;;4.10;;
22614;SDS011;11474;50.790;0.298;2022-11-20T13:54:20;20.08;;;4.32;;
22614;SDS011;11474;50.790;0.298;2022-11-20T14:01:40;28.67;;;4.85;;
22614;SDS011;11474;50.790;0.298;2022-11-20T14:04:08;23.92;;;4.80;;
22614;SDS011;11474;50.790;0.298;2022-11-20T14:06:44;25.13;;;3.95;;
22614;SDS011;11474;50.790;0.298;2022-11-20T14:09:12;21.33;;;4.35;;
22614;SDS011;11474;50.790;0.298;2022-11-20T14:11:45;25.05;;;4.82;;
22614;SDS011;11474;50.790;0.298;2022-11-20T14:14:17;21.13;;;4.30;;
22614;SDS011;11474;50.790;0.298;2022-11-20T14:16:44;22.70;;;3.97;;
22614;SDS011;11474;50.790;0.298;2022-11-20T14:21:48;20.95;;;3.80;;
22614;SDS011;11474;50.790;0.298;2022-11-20T14:24:24;19.30;;;3.93;;
22614;SDS011;11474;50.790;0.298;2022-11-20T14:26:50;22.15;;;3.55;;
22614;SDS011;11474;50.790;0.298;2022-11-20T14:29:17;20.88;;;3.67;;
22614;SDS011;11474;50.790;0.298;2022-11-20T14:31:44;23.10;;;4.03;;
22614;SDS011;11474;50.790;0.298;2022-11-20T14:34:15;22.17;;;4.18;;
22614;SDS011;11474;50.790;0.298;2022-11-20T14:36:41;18.65;;;4.65;;
22614;SDS011;11474;50.790;0.298;2022-11-20T14:39:19;25.48;;;4.40;;
22614;SDS011;11474;50.790;0.298;2022-11-20T14:41:52;26.23;;;4.03;;
22614;SDS011;11474;50.790;0.298;2022-11-20T14:44:23;22.92;;;4.10;;
22614;SDS011;11474;50.790;0.298;2022-11-20T14:46:51;21.13;;;3.88;;
22614;SDS011;11474;50.790;0.298;2022-11-20T14:49:17;26.13;;;4.53;;
22614;SDS011;11474;50.790;0.298;2022-11-20T14:51:44;21.88;;;4.18;;
22614;SDS011;11474;50.790;0.298;2022-11-20T14:54:12;22.73;;;4.20;;
22614;SDS011;11474;50.790;0.298;2022-11-20T14:56:39;26.17;;;4.75;;
22614;SDS011;11474;50.790;0.298;2022-11-20T14:59:05;22.55;;;4.43;;
22614;SDS011;11474;50.790;0.298;2022-11-20T15:01:33;27.10;;;4.63;;
22614;SDS011;11474;50.790;0.298;2022-11-20T15:04:00;26.25;;;4.55;;
22614;SDS011;11474;50.790;0.298;2022-11-20T15:06:26;24.00;;;5.00;;
22614;SDS011;11474;50.790;0.298;2022-11-20T15:08:52;25.20;;;4.90;;
22614;SDS011;11474;50.790;0.298;2022-11-20T15:11:19;26.38;;;4.30;;
22614;SDS011;11474;50.790;0.298;2022-11-20T15:13:46;23.45;;;4.85;;
22614;SDS011;11474;50.790;0.298;2022-11-20T15:16:17;23.50;;;4.95;;
22614;SDS011;11474;50.790;0.298;2022-11-20T15:18:44;28.17;;;4.83;;
22614;SDS011;11474;50.790;0.298;2022-11-20T15:21:14;26.48;;;4.75;;
22614;SDS011;11474;50.790;0.298;2022-11-20T15:23:40;27.60;;;4.45;;
22614;SDS011;11474;50.790;0.298;2022-11-20T15:26:06;24.95;;;4.25;;
22614;SDS011;11474;50.790;0.298;2022-11-20T15:28:42;31.65;;;4.60;;
22614;SDS011;11474;50.790;0.298;2022-11-20T15:31:13;21.23;;;3.83;;
22614;SDS011;11474;50.790;0.298;2022-11-20T15:33:40;22.90;;;4.25;;
22614;SDS011;11474;50.790;0.298;2022-11-20T15:36:07;20.58;;;4.20;;
22614;SDS011;11474;50.790;0.298;2022-11-20T15:38:33;23.15;;;3.92;;
22614;SDS011;11474;50.790;0.298;2022-11-20T15:40:59;24.47;;;4.30;;
22614;SDS011;11474;50.790;0.298;2022-11-20T15:43:25;24.92;;;5.18;;
22614;SDS011;11474;50.790;0.298;2022-11-20T15:46:05;25.63;;;4.47;;
22614;SDS011;11474;50.790;0.298;2022-11-20T15:48:34;29.27;;;4.30;;
22614;SDS011;11474;50.790;0.298;2022-11-20T15:53:31;23.58;;;4.80;;
22614;SDS011;11474;50.790;0.298;2022-11-20T15:55:57;24.02;;;4.18;;
22614;SDS011;11474;50.790;0.298;2022-11-20T15:58:23;22.90;;;4.15;;
22614;SDS011;11474;50.790;0.298;2022-11-20T16:00:49;24.70;;;4.55;;
22614;SDS011;11474;50.790;0.298;2022-11-20T16:03:16;22.35;;;3.65;;
22614;SDS011;11474;50.790;0.298;2022-11-20T16:05:42;19.38;;;4.07;;
22614;SDS011;11474;50.790;0.298;2022-11-20T16:08:09;23.90;;;4.28;;
22614;SDS011;11474;50.790;0.298;2022-11-20T16:10:35;21.88;;;4.28;;